createdAt,value
2016-05-03T00:00:14.865Z,5.54
2016-05-03T00:01:14.868Z,5.4
2016-05-03T00:02:14.871Z,5.34
2016-05-03T00:03:14.716Z,5.38
2016-05-03T00:04:14.876Z,5.41
2016-05-03T00:05:14.863Z,5.44
2016-05-03T00:06:14.866Z,5.36
2016-05-03T00:07:14.727Z,5.28
2016-05-03T00:08:14.715Z,5.37
2016-05-03T00:09:14.717Z,5.34
2016-05-03T00:10:14.877Z,5.36
2016-05-03T00:11:14.879Z,5.34
2016-05-03T00:12:14.866Z,5.29
2016-05-03T00:13:14.869Z,5.28
2016-05-03T00:14:14.715Z,5.29
2016-05-03T00:15:14.874Z,5.19
2016-05-03T00:16:14.862Z,5.26
2016-05-03T00:17:14.723Z,5.15
2016-05-03T00:18:14.711Z,5.22
2016-05-03T00:19:14.854Z,5.15
2016-05-03T00:20:14.873Z,5.19
2016-05-03T00:21:14.859Z,5.12
2016-05-03T00:22:15.643Z,5.16
2016-05-03T00:23:14.725Z,5.16
2016-05-03T00:24:14.867Z,5.07
2016-05-03T00:25:14.965Z,5.16
2016-05-03T00:26:15.468Z,5.05
2016-05-03T00:27:14.862Z,5.07
2016-05-03T00:28:15.765Z,5.07
2016-05-03T00:29:14.866Z,5.07
2016-05-03T00:30:14.873Z,5.12
2016-05-03T00:31:14.859Z,5.04
2016-05-03T00:32:14.879Z,5.13
2016-05-03T00:33:14.866Z,5.08
2016-05-03T00:34:14.712Z,5.19
2016-05-03T00:35:14.870Z,5.19
2016-05-03T00:36:14.858Z,5.16
2016-05-03T00:37:14.720Z,5.15
2016-05-03T00:38:14.554Z,5.13
2016-05-03T00:39:14.854Z,5.12
2016-05-03T00:40:14.856Z,5.15
2016-05-03T00:41:14.859Z,5.08
2016-05-03T00:42:14.704Z,5.13
2016-05-03T00:43:14.865Z,5.05
2016-05-03T00:44:14.695Z,5.04
2016-05-03T00:45:14.854Z,5.04
2016-05-03T00:46:14.856Z,5.04
2016-05-03T00:47:14.859Z,5
2016-05-03T00:48:14.846Z,5.1
2016-05-03T00:49:14.865Z,5.04
2016-05-03T00:50:14.851Z,5.02
2016-05-03T00:51:14.698Z,5.02
2016-05-03T00:52:15.014Z,5.1
2016-05-03T00:53:14.703Z,5
2016-05-03T00:54:14.847Z,5.02
2016-05-03T00:55:14.850Z,5.01
2016-05-03T00:56:14.852Z,5.07
2016-05-03T00:57:14.683Z,5
2016-05-03T00:58:14.858Z,5.02
2016-05-03T00:59:14.860Z,5.02
2016-05-03T01:00:14.847Z,4.9
2016-05-03T01:01:14.866Z,4.92
2016-05-03T01:02:14.852Z,4.89
2016-05-03T01:03:14.700Z,4.86
2016-05-03T01:04:14.686Z,4.79
2016-05-03T01:05:14.688Z,4.78
2016-05-03T01:06:14.848Z,4.78
2016-05-03T01:07:14.804Z,4.76
2016-05-03T01:08:14.697Z,4.78
2016-05-03T01:09:14.840Z,4.78
2016-05-03T01:10:14.844Z,4.84
2016-05-03T01:11:14.845Z,4.79
2016-05-03T01:12:14.849Z,4.82
2016-05-03T01:13:14.851Z,4.78
2016-05-03T01:14:14.681Z,4.76
2016-05-03T01:15:14.685Z,4.78
2016-05-03T01:16:14.843Z,4.74
2016-05-03T01:17:14.846Z,4.71
2016-05-03T01:18:14.848Z,4.76
2016-05-03T01:19:14.837Z,4.74
2016-05-03T01:20:14.839Z,4.71
2016-05-03T01:21:14.842Z,4.7
2016-05-03T01:22:15.094Z,4.68
2016-05-03T01:23:14.690Z,4.71
2016-05-03T01:24:14.678Z,4.7
2016-05-03T01:25:14.837Z,4.71
2016-05-03T01:26:14.683Z,4.68
2016-05-03T01:27:14.858Z,4.68
2016-05-03T01:28:14.845Z,4.84
2016-05-03T01:29:14.831Z,4.7
2016-05-03T01:30:14.834Z,4.78
2016-05-03T01:31:14.836Z,4.78
2016-05-03T01:32:14.684Z,4.71
2016-05-03T01:33:14.842Z,4.84
2016-05-03T01:34:14.830Z,4.79
2016-05-03T01:35:14.833Z,4.79
2016-05-03T01:36:14.835Z,4.94
2016-05-03T01:37:14.681Z,4.94
2016-05-03T01:38:14.825Z,5
2016-05-03T01:39:14.827Z,5.01
2016-05-03T01:40:14.830Z,5.1
2016-05-03T01:41:14.692Z,5.05
2016-05-03T01:42:14.836Z,5.19
2016-05-03T01:43:14.822Z,5.22
2016-05-03T01:44:14.825Z,5.25
2016-05-03T01:45:14.827Z,5.26
2016-05-03T01:46:14.830Z,5.33
2016-05-03T01:47:14.818Z,5.23
2016-05-03T01:48:14.680Z,5.28
2016-05-03T01:49:14.823Z,5.29
2016-05-03T01:50:14.826Z,5.25
2016-05-03T01:51:14.829Z,5.28
2016-05-03T01:52:14.831Z,5.25
2016-05-03T01:53:14.835Z,5.25
2016-05-03T01:54:14.821Z,5.25
2016-05-03T01:55:14.839Z,5.25
2016-05-03T01:56:14.812Z,5.1
2016-05-03T01:57:14.829Z,5.13
2016-05-03T01:58:14.816Z,5.12
2016-05-03T01:59:14.819Z,5.15
2016-05-03T02:00:14.822Z,5.07
2016-05-03T02:01:14.825Z,5.13
2016-05-03T02:02:14.811Z,5.15
2016-05-03T02:03:14.814Z,5.07
2016-05-03T02:04:14.817Z,5.13
2016-05-03T02:05:14.820Z,5.13
2016-05-03T02:06:14.823Z,5.12
2016-05-03T02:07:14.808Z,5.1
2016-05-03T02:08:14.812Z,5.2
2016-05-03T02:09:14.658Z,5.22
2016-05-03T02:10:14.817Z,5.22
2016-05-03T02:11:14.820Z,5.19
2016-05-03T02:12:14.807Z,5.23
2016-05-03T02:13:14.810Z,5.26
2016-05-03T02:14:14.813Z,5.23
2016-05-03T02:15:14.815Z,5.34
2016-05-03T02:16:14.646Z,5.37
2016-05-03T02:17:14.805Z,5.36
2016-05-03T02:18:14.807Z,5.31
2016-05-03T02:19:14.810Z,5.29
2016-05-03T02:20:14.813Z,5.33
2016-05-03T02:21:14.816Z,5.37
2016-05-03T02:22:15.068Z,5.38
2016-05-03T02:23:14.805Z,5.43
2016-05-03T02:24:14.807Z,5.4
2016-05-03T02:25:14.810Z,5.36
2016-05-03T02:26:14.813Z,5.29
2016-05-03T02:27:14.801Z,5.28
2016-05-03T02:28:14.803Z,5.31
2016-05-03T02:29:14.806Z,5.23
2016-05-03T02:30:14.653Z,5.22
2016-05-03T02:31:14.812Z,5.2
2016-05-03T02:32:14.486Z,5.19
2016-05-03T02:33:14.644Z,5.1
2016-05-03T02:34:14.648Z,5.12
2016-05-03T02:35:14.791Z,5.02
2016-05-03T02:36:14.497Z,5.05
2016-05-03T02:37:15.186Z,4.98
2016-05-03T02:38:14.628Z,4.95
2016-05-03T02:39:14.802Z,4.92
2016-05-03T02:40:14.632Z,4.97
2016-05-03T02:41:14.791Z,4.83
2016-05-03T02:42:14.794Z,4.79
2016-05-03T02:43:14.797Z,4.79
2016-05-03T02:44:14.800Z,4.7
2016-05-03T02:45:14.802Z,4.74
2016-05-03T02:46:14.805Z,4.71
2016-05-03T02:47:14.792Z,4.68
2016-05-03T02:48:14.794Z,4.76
2016-05-03T02:49:14.797Z,4.66
2016-05-03T02:50:14.784Z,4.71
2016-05-03T02:51:14.788Z,4.66
2016-05-03T02:52:14.805Z,4.64
2016-05-03T02:53:14.793Z,4.57
2016-05-03T02:54:14.639Z,4.61
2016-05-03T02:55:14.799Z,4.57
2016-05-03T02:56:14.629Z,4.53
2016-05-03T02:57:14.788Z,4.46
2016-05-03T02:58:14.635Z,4.49
2016-05-03T02:59:14.793Z,4.42
2016-05-03T03:00:14.780Z,4.39
2016-05-03T03:01:14.782Z,4.32
2016-05-03T03:02:14.770Z,4.46
2016-05-03T03:03:14.788Z,4.42
2016-05-03T03:04:14.791Z,4.43
2016-05-03T03:05:14.793Z,4.4
2016-05-03T03:06:14.781Z,4.4
2016-05-03T03:07:14.878Z,4.32
2016-05-03T03:08:14.801Z,4.36
2016-05-03T03:09:14.772Z,4.25
2016-05-03T03:10:14.792Z,4.34
2016-05-03T03:11:14.778Z,4.28
2016-05-03T03:12:14.625Z,4.24
2016-05-03T03:13:14.783Z,4.3
2016-05-03T03:14:14.772Z,4.21
2016-05-03T03:15:14.774Z,4.12
2016-05-03T03:16:14.777Z,4.13
2016-05-03T03:17:14.780Z,4.16
2016-05-03T03:18:14.625Z,4.06
2016-05-03T03:19:14.628Z,4.09
2016-05-03T03:20:14.771Z,4.03
2016-05-03T03:21:14.790Z,4.04
2016-05-03T03:22:14.793Z,3.95
2016-05-03T03:23:14.764Z,4.06
2016-05-03T03:24:14.610Z,4
2016-05-03T03:25:14.769Z,3.92
2016-05-03T03:26:14.771Z,3.96
2016-05-03T03:27:14.774Z,3.95
2016-05-03T03:28:14.777Z,3.89
2016-05-03T03:29:14.640Z,3.91
2016-05-03T03:30:14.611Z,3.86
2016-05-03T03:31:14.771Z,3.81
2016-05-03T03:32:14.757Z,3.85
2016-05-03T03:33:14.776Z,3.76
2016-05-03T03:34:14.778Z,3.81
2016-05-03T03:35:14.765Z,3.82
2016-05-03T03:36:14.627Z,3.78
2016-05-03T03:37:14.848Z,3.78
2016-05-03T03:38:14.773Z,3.84
2016-05-03T03:39:14.604Z,3.77
2016-05-03T03:40:14.762Z,3.84
2016-05-03T03:41:14.765Z,3.77
2016-05-03T03:42:14.612Z,3.82
2016-05-03T03:43:14.756Z,3.84
2016-05-03T03:44:14.759Z,3.82
2016-05-03T03:45:14.760Z,3.82
2016-05-03T03:46:14.763Z,3.77
2016-05-03T03:47:14.750Z,3.81
2016-05-03T03:48:14.753Z,3.74
2016-05-03T03:49:14.599Z,3.82
2016-05-03T03:50:14.431Z,3.84
2016-05-03T03:51:14.449Z,3.82
2016-05-03T03:52:14.608Z,3.88
2016-05-03T03:53:14.766Z,3.86
2016-05-03T03:54:14.597Z,3.85
2016-05-03T03:55:14.599Z,3.88
2016-05-03T03:56:14.760Z,3.88
2016-05-03T03:57:14.777Z,3.89
2016-05-03T03:58:14.748Z,3.86
2016-05-03T03:59:14.751Z,3.95
2016-05-03T04:00:14.754Z,3.92
2016-05-03T04:01:14.585Z,3.96
2016-05-03T04:02:14.760Z,3.99
2016-05-03T04:03:14.590Z,3.96
2016-05-03T04:04:14.593Z,3.95
2016-05-03T04:05:14.752Z,3.95
2016-05-03T04:06:14.755Z,3.92
2016-05-03T04:07:16.554Z,3.95
2016-05-03T04:08:14.744Z,3.94
2016-05-03T04:09:14.747Z,4
2016-05-03T04:10:14.750Z,4
2016-05-03T04:11:14.737Z,4.06
2016-05-03T04:12:14.756Z,4.02
2016-05-03T04:13:14.759Z,4.09
2016-05-03T04:14:14.728Z,4.13
2016-05-03T04:15:14.747Z,4.18
2016-05-03T04:16:14.766Z,4.22
2016-05-03T04:17:14.737Z,4.3
2016-05-03T04:18:14.756Z,4.38
2016-05-03T04:19:14.742Z,4.4
2016-05-03T04:20:14.574Z,4.38
2016-05-03T04:21:14.581Z,4.38
2016-05-03T04:22:14.926Z,4.48
2016-05-03T04:23:14.836Z,4.49
2016-05-03T04:24:14.869Z,4.61
2016-05-03T04:25:14.763Z,4.6
2016-05-03T04:26:14.964Z,4.58
2016-05-03T04:27:14.969Z,4.63
2016-05-03T04:28:14.846Z,4.71
2016-05-03T04:29:15.022Z,4.68
2016-05-03T04:30:15.026Z,4.7
2016-05-03T04:31:15.059Z,4.7
2016-05-03T04:32:15.052Z,4.79
2016-05-03T04:33:15.062Z,4.87
2016-05-03T04:34:15.055Z,5.01
2016-05-03T04:35:15.064Z,5.15
2016-05-03T04:36:15.071Z,5.25
2016-05-03T04:37:15.655Z,5.37
2016-05-03T04:38:15.066Z,5.44
2016-05-03T04:39:14.914Z,5.67
2016-05-03T04:40:14.920Z,5.73
2016-05-03T04:41:15.081Z,5.8
2016-05-03T04:42:15.069Z,5.91
2016-05-03T04:43:15.088Z,5.98
2016-05-03T04:44:14.935Z,6.02
2016-05-03T04:45:15.080Z,6.15
2016-05-03T04:46:15.083Z,6.19
2016-05-03T04:47:15.070Z,6.31
2016-05-03T04:48:14.917Z,6.34
2016-05-03T04:49:14.920Z,6.32
2016-05-03T04:50:15.079Z,6.38
2016-05-03T04:51:15.082Z,6.39
2016-05-03T04:52:14.773Z,6.39
2016-05-03T04:53:15.071Z,6.29
2016-05-03T04:54:14.918Z,6.28
2016-05-03T04:55:15.077Z,6.19
2016-05-03T04:56:15.080Z,6.09
2016-05-03T04:57:15.067Z,5.99
2016-05-03T04:58:14.929Z,5.95
2016-05-03T04:59:15.088Z,5.94
2016-05-03T05:00:15.075Z,5.97
2016-05-03T05:01:14.765Z,5.98
2016-05-03T05:02:15.081Z,5.99
2016-05-03T05:03:14.912Z,5.98
2016-05-03T05:04:15.070Z,5.99
2016-05-03T05:05:15.073Z,6.01
2016-05-03T05:06:15.075Z,6.1
2016-05-03T05:07:14.922Z,6.22
2016-05-03T05:08:14.909Z,6.31
2016-05-03T05:09:15.069Z,6.39
2016-05-03T05:10:14.914Z,6.5
2016-05-03T05:11:15.074Z,6.56
2016-05-03T05:12:15.077Z,6.78
2016-05-03T05:13:14.922Z,6.92
2016-05-03T05:14:15.066Z,7.11
2016-05-03T05:15:14.913Z,7.13
2016-05-03T05:16:15.071Z,7.33
2016-05-03T05:17:15.074Z,7.37
2016-05-03T05:18:14.921Z,7.43
2016-05-03T05:19:15.063Z,7.53
2016-05-03T05:20:15.066Z,7.53
2016-05-03T05:21:15.069Z,7.55
2016-05-03T05:22:15.213Z,7.7
2016-05-03T05:23:15.074Z,7.7
2016-05-03T05:24:15.062Z,7.87
2016-05-03T05:25:15.065Z,8.01
2016-05-03T05:26:15.067Z,7.99
2016-05-03T05:27:15.070Z,8.06
2016-05-03T05:28:15.056Z,8.21
2016-05-03T05:29:15.059Z,8.24
2016-05-03T05:30:15.062Z,8.31
2016-05-03T05:31:15.065Z,8.39
2016-05-03T05:32:15.051Z,8.63
2016-05-03T05:33:15.054Z,8.87
2016-05-03T05:34:14.901Z,9.02
2016-05-03T05:35:15.059Z,9.31
2016-05-03T05:36:15.062Z,9.44
2016-05-03T05:37:15.065Z,9.56
2016-05-03T05:38:15.052Z,9.77
2016-05-03T05:39:14.915Z,9.97
2016-05-03T05:40:15.073Z,10.07
2016-05-03T05:41:14.904Z,10.23
2016-05-03T05:42:15.063Z,10.28
2016-05-03T05:43:15.066Z,10.49
2016-05-03T05:44:15.052Z,10.82
2016-05-03T05:45:14.915Z,11.31
2016-05-03T05:46:14.886Z,12.18
2016-05-03T05:47:15.061Z,13.08
2016-05-03T05:48:15.063Z,13.89
2016-05-03T05:49:15.051Z,14.58
2016-05-03T05:50:15.054Z,15.17
2016-05-03T05:51:15.057Z,15.85
2016-05-03T05:52:15.527Z,16.65
2016-05-03T05:53:14.905Z,17.38
2016-05-03T05:54:15.065Z,17.95
2016-05-03T05:55:15.067Z,18.53
2016-05-03T05:56:15.070Z,18.88
2016-05-03T05:57:15.057Z,19.09
2016-05-03T05:58:15.059Z,19.49
2016-05-03T05:59:15.062Z,19.9
2016-05-03T06:00:15.065Z,20.48
2016-05-03T06:01:15.067Z,21.14
2016-05-03T06:02:15.086Z,21.62
2016-05-03T06:03:15.072Z,22.41
2016-05-03T06:04:14.920Z,22.86
2016-05-03T06:05:15.079Z,23.42
2016-05-03T06:06:15.081Z,23.82
2016-05-03T06:07:15.099Z,24.43
2016-05-03T06:08:15.086Z,24.81
2016-05-03T06:09:15.089Z,25.37
2016-05-03T06:10:15.076Z,25.86
2016-05-03T06:11:15.079Z,26.27
2016-05-03T06:12:15.097Z,26.24
2016-05-03T06:13:15.099Z,26.04
2016-05-03T06:14:15.087Z,25.58
2016-05-03T06:15:15.105Z,25.3
2016-05-03T06:16:15.108Z,24.65
2016-05-03T06:17:15.095Z,24.26
2016-05-03T06:18:15.114Z,23.99
2016-05-03T06:19:14.944Z,23.84
2016-05-03T06:20:15.119Z,23.73
2016-05-03T06:21:15.105Z,23.49
2016-05-03T06:22:15.890Z,23.07
2016-05-03T06:23:14.955Z,22.88
2016-05-03T06:24:14.974Z,22.81
2016-05-03T06:25:15.116Z,22.74
2016-05-03T06:26:15.134Z,22.49
2016-05-03T06:27:15.138Z,22.4
2016-05-03T06:28:15.124Z,22.3
2016-05-03T06:29:14.987Z,22.15
2016-05-03T06:30:15.162Z,22.12
2016-05-03T06:31:15.148Z,21.94
2016-05-03T06:32:15.151Z,21.59
2016-05-03T06:33:15.013Z,21.38
2016-05-03T06:34:15.000Z,20.88
2016-05-03T06:35:15.159Z,20.39
2016-05-03T06:36:15.006Z,19.93
2016-05-03T06:37:15.165Z,19.6
2016-05-03T06:38:15.010Z,19.22
2016-05-03T06:39:15.170Z,18.66
2016-05-03T06:40:15.172Z,18.36
2016-05-03T06:41:15.175Z,18.13
2016-05-03T06:42:15.178Z,17.95
2016-05-03T06:43:15.197Z,17.8
2016-05-03T06:44:15.183Z,17.69
2016-05-03T06:45:15.185Z,17.82
2016-05-03T06:46:15.188Z,18.03
2016-05-03T06:47:15.035Z,18.61
2016-05-03T06:48:15.210Z,18.98
2016-05-03T06:49:15.213Z,19.15
2016-05-03T06:50:15.215Z,19.39
2016-05-03T06:51:15.061Z,19.48
2016-05-03T06:52:15.611Z,19.42
2016-05-03T06:53:15.223Z,19.53
2016-05-03T06:54:15.226Z,19.6
2016-05-03T06:55:15.056Z,19.7
2016-05-03T06:56:15.232Z,19.81
2016-05-03T06:57:15.234Z,19.67
2016-05-03T06:58:15.221Z,19.71
2016-05-03T06:59:15.224Z,19.66
2016-05-03T07:00:14.929Z,19.59
2016-05-03T07:01:15.088Z,19.52
2016-05-03T07:02:15.091Z,19.49
2016-05-03T07:03:15.250Z,19.77
2016-05-03T07:04:15.237Z,20.3
2016-05-03T07:05:15.256Z,21
2016-05-03T07:06:15.259Z,21.69
2016-05-03T07:07:15.823Z,22.16
2016-05-03T07:08:15.264Z,22.59
2016-05-03T07:09:15.281Z,22.84
2016-05-03T07:10:15.269Z,23.25
2016-05-03T07:11:15.287Z,23.66
2016-05-03T07:12:15.275Z,23.74
2016-05-03T07:13:15.278Z,23.85
2016-05-03T07:14:15.139Z,24.09
2016-05-03T07:15:15.298Z,24.61
2016-05-03T07:16:15.300Z,25.12
2016-05-03T07:17:15.303Z,25.25
2016-05-03T07:18:15.306Z,25.18
2016-05-03T07:19:14.996Z,25.03
2016-05-03T07:20:15.311Z,24.78
2016-05-03T07:21:15.314Z,24.58
2016-05-03T07:22:15.395Z,24.4
2016-05-03T07:23:15.304Z,24.22
2016-05-03T07:24:15.322Z,24.13
2016-05-03T07:25:15.325Z,23.95
2016-05-03T07:26:15.171Z,24.19
2016-05-03T07:27:15.174Z,24.55
2016-05-03T07:28:15.192Z,24.86
2016-05-03T07:29:15.196Z,25.12
2016-05-03T07:30:15.354Z,25.22
2016-05-03T07:31:15.201Z,25
2016-05-03T07:32:15.204Z,24.85
2016-05-03T07:33:15.362Z,24.79
2016-05-03T07:34:15.365Z,25.11
2016-05-03T07:35:15.367Z,25.61
2016-05-03T07:36:15.370Z,25.93
2016-05-03T07:37:15.451Z,26.06
2016-05-03T07:38:15.375Z,26.07
2016-05-03T07:39:15.410Z,26.06
2016-05-03T07:40:15.396Z,26.41
2016-05-03T07:41:15.399Z,26.76
2016-05-03T07:42:15.418Z,27.28
2016-05-03T07:43:15.404Z,27.85
2016-05-03T07:44:15.407Z,28.37
2016-05-03T07:45:15.269Z,29.28
2016-05-03T07:46:15.428Z,30.16
2016-05-03T07:47:15.415Z,30.95
2016-05-03T07:48:15.418Z,31.59
2016-05-03T07:49:15.436Z,32.29
2016-05-03T07:50:15.439Z,32.93
2016-05-03T07:51:15.442Z,33.35
2016-05-03T07:52:15.444Z,33.82
2016-05-03T07:53:15.447Z,34.24
2016-05-03T07:54:15.466Z,34.6
2016-05-03T07:55:15.484Z,35.07
2016-05-03T07:56:15.471Z,35.63
2016-05-03T07:57:15.332Z,36.06
2016-05-03T07:58:15.491Z,36.01
2016-05-03T07:59:15.494Z,36.09
2016-05-03T08:00:15.482Z,36.01
2016-05-03T08:01:15.500Z,35.97
2016-05-03T08:02:15.519Z,35.81
2016-05-03T08:03:15.537Z,35.64
2016-05-03T08:04:15.524Z,35.49
2016-05-03T08:05:15.558Z,35.38
2016-05-03T08:06:15.388Z,35.12
2016-05-03T08:07:15.704Z,34.79
2016-05-03T08:08:15.394Z,34.53
2016-05-03T08:09:15.568Z,34.38
2016-05-03T08:10:15.414Z,34.18
2016-05-03T08:11:15.574Z,33.81
2016-05-03T08:12:15.576Z,33.28
2016-05-03T08:13:15.578Z,32.82
2016-05-03T08:14:15.582Z,32.29
2016-05-03T08:15:15.444Z,32.02
2016-05-03T08:16:15.603Z,32
2016-05-03T08:17:15.606Z,32.09
2016-05-03T08:18:15.811Z,32.09
2016-05-03T08:19:15.626Z,32.29
2016-05-03T08:20:15.628Z,32.6
2016-05-03T08:21:15.475Z,32.44
2016-05-03T08:22:15.478Z,32.01
2016-05-03T08:23:15.653Z,31.89
2016-05-03T08:24:15.483Z,31.86
2016-05-03T08:25:15.502Z,31.64
2016-05-03T08:26:15.661Z,31.7
2016-05-03T08:27:15.663Z,31.85
2016-05-03T08:28:15.666Z,31.81
2016-05-03T08:29:15.528Z,32.09
2016-05-03T08:30:15.531Z,32.35
2016-05-03T08:31:15.690Z,33
2016-05-03T08:32:15.693Z,33.79
2016-05-03T08:33:15.695Z,34.81
2016-05-03T08:34:15.698Z,35.87
2016-05-03T08:35:15.716Z,36.75
2016-05-03T08:36:15.734Z,37.29
2016-05-03T08:37:15.565Z,37.85
2016-05-03T08:38:15.943Z,38.53
2016-05-03T08:39:15.742Z,38.82
2016-05-03T08:40:15.745Z,39.23
2016-05-03T08:41:15.748Z,39.88
2016-05-03T08:42:15.766Z,40.39
2016-05-03T08:43:15.753Z,41
2016-05-03T08:44:15.773Z,41.3
2016-05-03T08:45:15.790Z,41.36
2016-05-03T08:46:15.777Z,41.67
2016-05-03T08:47:15.796Z,41.83
2016-05-03T08:48:15.798Z,42.12
2016-05-03T08:49:15.800Z,42.49
2016-05-03T08:50:15.819Z,42.61
2016-05-03T08:51:15.837Z,42.9
2016-05-03T08:52:15.666Z,43.22
2016-05-03T08:53:15.839Z,43.41
2016-05-03T08:54:15.671Z,43.58
2016-05-03T08:55:15.830Z,43.69
2016-05-03T08:56:15.848Z,43.19
2016-05-03T08:57:15.851Z,42.51
2016-05-03T08:58:15.869Z,41.99
2016-05-03T08:59:15.872Z,41.44
2016-05-03T09:00:15.719Z,40.59
2016-05-03T09:01:15.877Z,39.71
2016-05-03T09:02:15.724Z,39.08
2016-05-03T09:03:15.882Z,38.31
2016-05-03T09:04:15.744Z,37.34
2016-05-03T09:05:15.904Z,36.82
2016-05-03T09:06:15.907Z,36.67
2016-05-03T09:07:15.909Z,36.99
2016-05-03T09:08:17.415Z,37.21
2016-05-03T09:09:15.915Z,37.57
2016-05-03T09:10:15.917Z,38.16
2016-05-03T09:11:15.935Z,38.51
2016-05-03T09:12:15.782Z,38.65
2016-05-03T09:13:15.957Z,38.7
2016-05-03T09:14:15.959Z,38.62
2016-05-03T09:15:15.978Z,38.16
2016-05-03T09:16:15.980Z,37.6
2016-05-03T09:17:15.998Z,37.15
2016-05-03T09:18:15.986Z,36.66
2016-05-03T09:19:15.988Z,36.62
2016-05-03T09:20:15.991Z,36.96
2016-05-03T09:21:15.994Z,37.21
2016-05-03T09:22:16.011Z,37.06
2016-05-03T09:23:16.389Z,36.75
2016-05-03T09:24:16.033Z,36.48
2016-05-03T09:25:16.020Z,36.29
2016-05-03T09:26:16.038Z,36.03
2016-05-03T09:27:16.041Z,36.03
2016-05-03T09:28:16.028Z,36.06
2016-05-03T09:29:16.062Z,35.9
2016-05-03T09:30:15.893Z,35.59
2016-05-03T09:31:16.052Z,35.16
2016-05-03T09:32:15.898Z,34.47
2016-05-03T09:33:16.057Z,33.67
2016-05-03T09:34:16.059Z,32.9
2016-05-03T09:35:15.922Z,32.11
2016-05-03T09:36:16.096Z,31.47
2016-05-03T09:37:15.771Z,30.88
2016-05-03T09:38:15.946Z,30.29
2016-05-03T09:39:16.120Z,29.74
2016-05-03T09:40:16.107Z,29.15
2016-05-03T09:41:16.110Z,28.62
2016-05-03T09:42:16.112Z,28.08
2016-05-03T09:43:15.959Z,27.53
2016-05-03T09:44:16.134Z,27.04
2016-05-03T09:45:16.137Z,26.7
2016-05-03T09:46:16.139Z,26.42
2016-05-03T09:47:16.142Z,26.06
2016-05-03T09:48:16.145Z,25.76
2016-05-03T09:49:15.990Z,25.49
2016-05-03T09:50:16.150Z,25.24
2016-05-03T09:51:16.167Z,25.03
2016-05-03T09:52:15.859Z,24.81
2016-05-03T09:53:16.017Z,24.5
2016-05-03T09:54:16.019Z,24.34
2016-05-03T09:55:16.179Z,24.09
2016-05-03T09:56:15.869Z,23.88
2016-05-03T09:57:16.184Z,23.71
2016-05-03T09:58:16.187Z,23.55
2016-05-03T09:59:16.189Z,23.45
2016-05-03T10:00:16.052Z,23.37
2016-05-03T10:01:16.210Z,23.17
2016-05-03T10:02:16.230Z,23.06
2016-05-03T10:03:16.060Z,22.92
2016-05-03T10:04:16.202Z,22.86
2016-05-03T10:05:16.237Z,22.83
2016-05-03T10:06:16.240Z,22.81
2016-05-03T10:07:16.242Z,22.67
2016-05-03T10:08:16.338Z,22.46
2016-05-03T10:09:16.232Z,22.41
2016-05-03T10:10:16.250Z,22.25
2016-05-03T10:11:16.253Z,22.21
2016-05-03T10:12:16.256Z,22.19
2016-05-03T10:13:16.259Z,22.15
2016-05-03T10:14:16.261Z,21.99
2016-05-03T10:15:16.107Z,21.94
2016-05-03T10:16:16.282Z,21.92
2016-05-03T10:17:16.285Z,21.66
2016-05-03T10:18:16.287Z,21.54
2016-05-03T10:19:16.118Z,21.44
2016-05-03T10:20:16.292Z,21.25
2016-05-03T10:21:16.281Z,21.15
2016-05-03T10:22:16.298Z,21.13
2016-05-03T10:23:16.363Z,21.03
2016-05-03T10:24:16.006Z,21.04
2016-05-03T10:25:16.306Z,21.03
2016-05-03T10:26:16.309Z,20.96
2016-05-03T10:27:16.312Z,20.86
2016-05-03T10:28:16.330Z,20.74
2016-05-03T10:29:16.317Z,20.59
2016-05-03T10:30:16.336Z,20.4
2016-05-03T10:31:16.338Z,20.4
2016-05-03T10:32:16.169Z,20.39
2016-05-03T10:33:16.344Z,20.33
2016-05-03T10:34:16.346Z,20.34
2016-05-03T10:35:16.349Z,20.44
2016-05-03T10:36:16.352Z,20.46
2016-05-03T10:37:16.199Z,20.49
2016-05-03T10:38:16.669Z,20.59
2016-05-03T10:39:16.375Z,20.59
2016-05-03T10:40:16.363Z,20.68
2016-05-03T10:41:16.380Z,20.66
2016-05-03T10:42:16.383Z,20.71
2016-05-03T10:43:16.371Z,20.71
2016-05-03T10:44:16.373Z,20.74
2016-05-03T10:45:16.220Z,20.8
2016-05-03T10:46:16.394Z,20.86
2016-05-03T10:47:16.396Z,20.92
2016-05-03T10:48:16.384Z,20.96
2016-05-03T10:49:16.245Z,20.86
2016-05-03T10:50:16.389Z,20.85
2016-05-03T10:51:16.251Z,20.89
2016-05-03T10:52:16.410Z,20.98
2016-05-03T10:53:16.429Z,21.04
2016-05-03T10:54:16.415Z,21.08
2016-05-03T10:55:16.417Z,21.11
2016-05-03T10:56:16.437Z,21.13
2016-05-03T10:57:16.283Z,21.22
2016-05-03T10:58:16.442Z,21.45
2016-05-03T10:59:16.429Z,21.54
2016-05-03T11:00:16.291Z,21.62
2016-05-03T11:01:16.450Z,21.68
2016-05-03T11:02:16.297Z,21.65
2016-05-03T11:03:16.455Z,21.74
2016-05-03T11:04:16.302Z,21.84
2016-05-03T11:05:16.461Z,22.06
2016-05-03T11:06:16.463Z,22.3
2016-05-03T11:07:16.310Z,22.49
2016-05-03T11:08:16.375Z,22.59
2016-05-03T11:09:16.471Z,22.68
2016-05-03T11:10:16.475Z,22.55
2016-05-03T11:11:16.477Z,22.28
2016-05-03T11:12:16.495Z,22.06
2016-05-03T11:13:16.327Z,21.65
2016-05-03T11:14:16.500Z,21.33
2016-05-03T11:15:16.346Z,20.89
2016-05-03T11:16:16.490Z,20.18
2016-05-03T11:17:16.493Z,19.79
2016-05-03T11:18:16.512Z,19.26
2016-05-03T11:19:16.514Z,18.71
2016-05-03T11:20:16.376Z,18.21
2016-05-03T11:21:16.519Z,17.79
2016-05-03T11:22:16.210Z,17.27
2016-05-03T11:23:16.368Z,16.76
2016-05-03T11:24:16.528Z,16.36
2016-05-03T11:25:16.531Z,15.78
2016-05-03T11:26:16.533Z,15.27
2016-05-03T11:27:16.536Z,14.68
2016-05-03T11:28:16.539Z,14.11
2016-05-03T11:29:16.384Z,13.58
2016-05-03T11:30:16.544Z,13.13
2016-05-03T11:31:16.547Z,12.8
2016-05-03T11:32:16.408Z,12.58
2016-05-03T11:33:16.552Z,12.3
2016-05-03T11:34:16.555Z,12.25
2016-05-03T11:35:16.557Z,12.11
2016-05-03T11:36:16.575Z,12.12
2016-05-03T11:37:16.578Z,11.99
2016-05-03T11:38:16.283Z,11.91
2016-05-03T11:39:16.568Z,11.95
2016-05-03T11:40:16.586Z,12.1
2016-05-03T11:41:16.588Z,12.18
2016-05-03T11:42:16.420Z,12.33
2016-05-03T11:43:16.579Z,12.29
2016-05-03T11:44:16.597Z,12.51
2016-05-03T11:45:16.600Z,12.62
2016-05-03T11:46:16.602Z,12.84
2016-05-03T11:47:16.448Z,13.02
2016-05-03T11:48:16.607Z,13.21
2016-05-03T11:49:16.813Z,13.24
2016-05-03T11:50:16.598Z,13.52
2016-05-03T11:51:16.601Z,13.71
2016-05-03T11:52:16.650Z,13.87
2016-05-03T11:53:16.606Z,14.12
2016-05-03T11:54:16.451Z,14.23
2016-05-03T11:55:16.674Z,14.34
2016-05-03T11:56:16.629Z,14.3
2016-05-03T11:57:16.476Z,14.4
2016-05-03T11:58:16.666Z,14.49
2016-05-03T11:59:16.325Z,14.56
2016-05-03T12:00:16.640Z,14.66
2016-05-03T12:01:16.642Z,14.68
2016-05-03T12:02:16.646Z,14.82
2016-05-03T12:03:16.633Z,14.92
2016-05-03T12:04:16.494Z,14.99
2016-05-03T12:05:16.638Z,15.11
2016-05-03T12:06:16.656Z,15.23
2016-05-03T12:07:16.644Z,15.37
2016-05-03T12:08:16.506Z,15.39
2016-05-03T12:09:16.649Z,15.47
2016-05-03T12:10:16.667Z,15.48
2016-05-03T12:11:16.670Z,15.32
2016-05-03T12:12:16.657Z,15.3
2016-05-03T12:13:16.519Z,15.08
2016-05-03T12:14:16.693Z,14.99
2016-05-03T12:15:16.681Z,14.85
2016-05-03T12:16:16.683Z,14.86
2016-05-03T12:17:16.670Z,14.85
2016-05-03T12:18:16.688Z,14.78
2016-05-03T12:19:16.691Z,14.81
2016-05-03T12:20:16.694Z,14.79
2016-05-03T12:21:16.697Z,14.7
2016-05-03T12:22:16.699Z,14.62
2016-05-03T12:23:16.765Z,14.55
2016-05-03T12:24:16.705Z,14.44
2016-05-03T12:25:16.708Z,14.49
2016-05-03T12:26:16.710Z,14.45
2016-05-03T12:27:16.712Z,14.52
2016-05-03T12:28:16.700Z,14.59
2016-05-03T12:29:16.562Z,14.61
2016-05-03T12:30:16.720Z,14.61
2016-05-03T12:31:16.567Z,14.62
2016-05-03T12:32:16.726Z,14.7
2016-05-03T12:33:16.729Z,14.77
2016-05-03T12:34:16.576Z,14.74
2016-05-03T12:35:16.734Z,14.92
2016-05-03T12:36:16.736Z,15.05
2016-05-03T12:37:16.739Z,15.17
2016-05-03T12:38:16.961Z,15.27
2016-05-03T12:39:16.730Z,15.43
2016-05-03T12:40:16.733Z,15.44
2016-05-03T12:41:16.735Z,15.52
2016-05-03T12:42:16.738Z,15.76
2016-05-03T12:43:16.599Z,16
2016-05-03T12:44:16.602Z,16.29
2016-05-03T12:45:16.745Z,16.59
2016-05-03T12:46:16.608Z,16.86
2016-05-03T12:47:16.752Z,16.84
2016-05-03T12:48:16.754Z,16.91
2016-05-03T12:49:16.772Z,16.97
2016-05-03T12:50:16.602Z,17.17
2016-05-03T12:51:16.605Z,17.32
2016-05-03T12:52:16.451Z,17.42
2016-05-03T12:53:16.470Z,17.44
2016-05-03T12:54:16.770Z,17.66
2016-05-03T12:55:16.772Z,17.71
2016-05-03T12:56:16.790Z,17.86
2016-05-03T12:57:16.793Z,17.94
2016-05-03T12:58:16.796Z,17.98
2016-05-03T12:59:16.799Z,18.12
2016-05-03T13:00:16.787Z,18.28
2016-05-03T13:01:16.789Z,18.43
2016-05-03T13:02:16.651Z,18.63
2016-05-03T13:03:16.794Z,18.68
2016-05-03T13:04:16.812Z,18.7
2016-05-03T13:05:16.800Z,18.73
2016-05-03T13:06:16.802Z,18.81